Time,TemperatureF,DewpointF,PressureIn,WindDirection,WindDirectionDegrees,WindSpeedMPH,WindSpeedGustMPH,Humidity,HourlyPrecipIn,Conditions,Clouds,dailyrainin,SolarRadiationWatts/m^2,SoftwareType,DateUTC
2013-09-26 00:10:00,63.9,60.0,29.80,ESE,111,1.0,3.0,88,0.00,,,0.00,0,weatherlink.com 1.10,2013-09-26 05:10:00,
2013-09-26 00:25:00,63.6,60.0,29.81,ESE,111,2.0,3.0,88,0.00,,,0.00,0,weatherlink.com 1.10,2013-09-26 05:25:00,
2013-09-26 00:40:00,63.5,60.0,29.82,ESE,111,1.0,3.0,88,0.00,,,0.00,0,weatherlink.com 1.10,2013-09-26 05:40:00,
2013-09-26 00:55:00,63.3,60.0,29.81,ESE,111,0.0,3.0,88,0.00,,,0.00,0,weatherlink.com 1.10,2013-09-26 05:55:00,
2013-09-26 01:11:00,63.0,59.0,29.80,ESE,111,3.0,4.0,88,0.00,,,0.00,0,weatherlink.com 1.10,2013-09-26 06:11:00,
2013-09-26 01:26:00,63.2,60.0,29.80,ESE,111,1.0,3.0,88,0.00,,,0.00,0,weatherlink.com 1.10,2013-09-26 06:26:00,
2013-09-26 01:41:00,63.4,60.0,29.80,ESE,111,0.0,3.0,88,0.00,,,0.00,0,weatherlink.com 1.10,2013-09-26 06:41:00,
2013-09-26 01:56:00,63.4,60.0,29.81,ESE,111,1.0,3.0,88,0.00,,,0.00,0,weatherlink.com 1.10,2013-09-26 06:56:00,
2013-09-26 02:11:00,62.7,60.0,29.81,ESE,111,0.0,1.0,89,0.00,,,0.00,0,weatherlink.com 1.10,2013-09-26 07:11:00,
2013-09-26 02:26:00,62.5,59.0,29.81,ESE,111,0.0,2.0,89,0.00,,,0.00,0,weatherlink.com 1.10,2013-09-26 07:26:00,
2013-09-26 02:41:00,62.5,60.0,29.82,ESE,111,0.0,3.0,90,0.00,,,0.00,0,weatherlink.com 1.10,2013-09-26 07:41:00,
2013-09-26 02:56:00,62.8,60.0,29.81,ESE,111,1.0,3.0,89,0.00,,,0.00,0,weatherlink.com 1.10,2013-09-26 07:56:00,
2013-09-26 03:11:00,62.4,60.0,29.80,ESE,111,0.0,3.0,90,0.00,,,0.00,0,weatherlink.com 1.10,2013-09-26 08:11:00,
2013-09-26 03:26:00,62.7,60.0,29.80,ESE,111,0.0,4.0,90,0.00,,,0.00,0,weatherlink.com 1.10,2013-09-26 08:26:00,
2013-09-26 03:41:00,63.1,60.0,29.80,ESE,111,0.0,4.0,89,0.00,,,0.00,0,weatherlink.com 1.10,2013-09-26 08:41:00,
2013-09-26 03:56:00,62.8,60.0,29.80,ESE,111,0.0,2.0,89,0.00,,,0.00,0,weatherlink.com 1.10,2013-09-26 08:56:00,
2013-09-26 04:11:00,62.4,60.0,29.80,ESE,111,0.0,2.0,90,0.00,,,0.00,0,weatherlink.com 1.10,2013-09-26 09:11:00,
2013-09-26 04:26:00,62.2,59.0,29.80,ESE,111,2.0,3.0,90,0.00,,,0.00,0,weatherlink.com 1.10,2013-09-26 09:26:00,
2013-09-26 04:41:00,62.5,60.0,29.80,ESE,111,0.0,3.0,90,0.00,,,0.00,0,weatherlink.com 1.10,2013-09-26 09:41:00,
2013-09-26 04:56:00,62.5,59.0,29.80,ESE,110,3.0,3.0,89,0.00,,,0.00,0,weatherlink.com 1.10,2013-09-26 09:56:00,
2013-09-26 05:11:00,62.6,59.0,29.81,ESE,110,0.0,4.0,88,0.00,,,0.00,0,weatherlink.com 1.10,2013-09-26 10:11:00,
2013-09-26 05:26:00,62.2,59.0,29.81,ESE,110,1.0,3.0,89,0.00,,,0.00,0,weatherlink.com 1.10,2013-09-26 10:26:00,
2013-09-26 05:41:00,62.1,59.0,29.81,ESE,110,0.0,3.0,89,0.00,,,0.00,0,weatherlink.com 1.10,2013-09-26 10:41:00,
2013-09-26 05:56:00,62.1,59.0,29.82,ESE,109,1.0,5.0,89,0.00,,,0.00,0,weatherlink.com 1.10,2013-09-26 10:56:00,
2013-09-26 06:11:00,62.1,59.0,29.82,ESE,111,2.0,4.0,88,0.00,,,0.00,0,weatherlink.com 1.10,2013-09-26 11:11:00,
2013-09-26 06:26:00,62.1,59.0,29.83,ESE,111,0.0,4.0,88,0.00,,,0.00,0,weatherlink.com 1.10,2013-09-26 11:26:00,
2013-09-26 06:41:00,61.9,58.0,29.83,ESE,111,0.0,3.0,88,0.00,,,0.00,0,weatherlink.com 1.10,2013-09-26 11:41:00,
2013-09-26 06:56:00,61.7,58.0,29.84,ESE,111,2.0,3.0,88,0.00,,,0.00,0,weatherlink.com 1.10,2013-09-26 11:56:00,
2013-09-26 07:11:00,61.4,58.0,29.84,ESE,111,0.0,4.0,88,0.00,,,0.00,0,weatherlink.com 1.10,2013-09-26 12:11:00,
2013-09-26 07:26:00,61.3,58.0,29.85,ESE,112,1.0,5.0,88,0.00,,,0.00,11,weatherlink.com 1.10,2013-09-26 12:26:00,
2013-09-26 07:41:00,61.3,58.0,29.85,ESE,112,0.0,4.0,88,0.00,,,0.00,19,weatherlink.com 1.10,2013-09-26 12:41:00,
2013-09-26 07:56:00,61.7,58.0,29.85,ESE,109,1.0,7.0,88,0.00,,,0.00,26,weatherlink.com 1.10,2013-09-26 12:56:00,
2013-09-26 08:11:00,62.7,59.0,29.85,ESE,111,2.0,7.0,87,0.00,,,0.00,42,weatherlink.com 1.10,2013-09-26 13:11:00,
2013-09-26 08:26:00,64.0,59.0,29.85,ESE,110,2.0,7.0,84,0.00,,,0.00,127,weatherlink.com 1.10,2013-09-26 13:26:00,
2013-09-26 08:41:00,65.7,60.0,29.86,ESE,118,1.0,8.0,82,0.00,,,0.00,176,weatherlink.com 1.10,2013-09-26 13:41:00,
2013-09-26 08:56:00,67.4,61.0,29.86,ESE,117,1.0,4.0,80,0.00,,,0.00,223,weatherlink.com 1.10,2013-09-26 13:56:00,
2013-09-26 09:11:00,68.9,61.0,29.87,SE,126,2.0,7.0,76,0.00,,,0.00,271,weatherlink.com 1.10,2013-09-26 14:11:00,
2013-09-26 09:26:00,70.1,61.0,29.87,SE,126,1.0,6.0,73,0.00,,,0.00,315,weatherlink.com 1.10,2013-09-26 14:26:00,
2013-09-26 09:41:00,71.5,63.0,29.87,SSE,161,2.0,7.0,74,0.00,,,0.00,355,weatherlink.com 1.10,2013-09-26 14:41:00,
2013-09-26 09:57:00,72.3,62.0,29.88,East,88,5.0,10.0,70,0.00,,,0.00,394,weatherlink.com 1.10,2013-09-26 14:57:00,
2013-09-26 10:12:00,73.2,62.0,29.87,South,181,4.0,11.0,69,0.00,,,0.00,438,weatherlink.com 1.10,2013-09-26 15:12:00,
2013-09-26 10:27:00,74.1,63.0,29.88,ESE,118,2.0,12.0,69,0.00,,,0.00,475,weatherlink.com 1.10,2013-09-26 15:27:00,
2013-09-26 10:42:00,75.4,63.0,29.87,ESE,107,7.0,7.0,66,0.00,,,0.00,508,weatherlink.com 1.10,2013-09-26 15:42:00,
2013-09-26 10:57:00,76.0,62.0,29.87,South,177,6.0,12.0,63,0.00,,,0.00,541,weatherlink.com 1.10,2013-09-26 15:57:00,
2013-09-26 11:12:00,77.1,63.0,29.86,ENE,59,8.0,10.0,61,0.00,,,0.00,575,weatherlink.com 1.10,2013-09-26 16:12:00,
2013-09-26 11:27:00,78.3,62.0,29.86,SSE,147,8.0,11.0,58,0.00,,,0.00,598,weatherlink.com 1.10,2013-09-26 16:27:00,
2013-09-26 11:42:00,79.0,62.0,29.86,East,90,5.0,9.0,57,0.00,,,0.00,626,weatherlink.com 1.10,2013-09-26 16:42:00,
2013-09-26 11:57:00,79.3,62.0,29.86,East,94,3.0,15.0,55,0.00,,,0.00,647,weatherlink.com 1.10,2013-09-26 16:57:00,
2013-09-26 12:12:00,80.1,61.0,29.85,ESE,107,5.0,14.0,52,0.00,,,0.00,664,weatherlink.com 1.10,2013-09-26 17:12:00,
2013-09-26 12:27:00,80.9,62.0,29.84,ESE,107,3.0,11.0,52,0.00,,,0.00,682,weatherlink.com 1.10,2013-09-26 17:27:00,
2013-09-26 12:42:00,81.6,61.0,29.85,ENE,64,3.0,13.0,49,0.00,,,0.00,693,weatherlink.com 1.10,2013-09-26 17:42:00,
2013-09-26 12:57:00,82.1,61.0,29.84,East,100,6.0,11.0,49,0.00,,,0.00,703,weatherlink.com 1.10,2013-09-26 17:57:00,
2013-09-26 13:12:00,82.8,61.0,29.83,ESE,112,2.0,16.0,47,0.00,,,0.00,708,weatherlink.com 1.10,2013-09-26 18:12:00,
2013-09-26 13:27:00,83.7,60.0,29.83,East,92,1.0,12.0,45,0.00,,,0.00,707,weatherlink.com 1.10,2013-09-26 18:27:00,
2013-09-26 13:42:00,83.9,61.0,29.82,ENE,68,2.0,11.0,46,0.00,,,0.00,703,weatherlink.com 1.10,2013-09-26 18:42:00,
2013-09-26 13:57:00,84.1,61.0,29.82,SSW,202,1.0,11.0,45,0.00,,,0.00,698,weatherlink.com 1.10,2013-09-26 18:57:00,
2013-09-26 14:13:00,84.1,60.0,29.81,ESE,114,4.0,13.0,44,0.00,,,0.00,689,weatherlink.com 1.10,2013-09-26 19:13:00,
2013-09-26 14:28:00,84.4,60.0,29.81,NE,49,4.0,14.0,44,0.00,,,0.00,673,weatherlink.com 1.10,2013-09-26 19:28:00,
2013-09-26 14:43:00,84.4,61.0,29.80,ENE,75,8.0,16.0,45,0.00,,,0.00,659,weatherlink.com 1.10,2013-09-26 19:43:00,
2013-09-26 14:58:00,84.8,61.0,29.80,ESE,113,5.0,12.0,44,0.00,,,0.00,640,weatherlink.com 1.10,2013-09-26 19:58:00,
2013-09-26 15:13:00,85.1,61.0,29.80,ESE,103,5.0,9.0,44,0.00,,,0.00,617,weatherlink.com 1.10,2013-09-26 20:13:00,
2013-09-26 15:28:00,85.1,60.0,29.79,ESE,104,7.0,14.0,43,0.00,,,0.00,594,weatherlink.com 1.10,2013-09-26 20:28:00,
2013-09-26 15:43:00,85.0,61.0,29.79,NNE,27,2.0,13.0,45,0.00,,,0.00,563,weatherlink.com 1.10,2013-09-26 20:43:00,
2013-09-26 15:58:00,85.3,61.0,29.79,NE,36,3.0,11.0,44,0.00,,,0.00,531,weatherlink.com 1.10,2013-09-26 20:58:00,
2013-09-26 16:13:00,85.4,61.0,29.79,ESE,117,3.0,12.0,44,0.00,,,0.00,494,weatherlink.com 1.10,2013-09-26 21:13:00,
2013-09-26 16:28:00,85.2,62.0,29.79,ENE,70,2.0,10.0,45,0.00,,,0.00,459,weatherlink.com 1.10,2013-09-26 21:28:00,
2013-09-26 16:43:00,85.2,60.0,29.79,NNE,16,2.0,9.0,43,0.00,,,0.00,418,weatherlink.com 1.10,2013-09-26 21:43:00,
2013-09-26 16:58:00,84.8,61.0,29.79,ENE,69,7.0,10.0,45,0.00,,,0.00,378,weatherlink.com 1.10,2013-09-26 21:58:00,
2013-09-26 17:13:00,84.5,60.0,29.78,SE,128,4.0,13.0,44,0.00,,,0.00,334,weatherlink.com 1.10,2013-09-26 22:13:00,
2013-09-26 17:28:00,84.1,61.0,29.79,ESE,121,4.0,13.0,46,0.00,,,0.00,288,weatherlink.com 1.10,2013-09-26 22:28:00,
2013-09-26 17:43:00,83.6,62.0,29.79,ESE,109,2.0,11.0,48,0.00,,,0.00,243,weatherlink.com 1.10,2013-09-26 22:43:00,
2013-09-26 17:58:00,83.0,61.0,29.79,ESE,118,4.0,9.0,48,0.00,,,0.00,192,weatherlink.com 1.10,2013-09-26 22:58:00,
2013-09-26 18:13:00,82.3,62.0,29.79,SW,228,8.0,9.0,50,0.00,,,0.00,37,weatherlink.com 1.10,2013-09-26 23:13:00,
2013-09-26 18:28:00,81.7,62.0,29.79,ESE,109,5.0,13.0,51,0.00,,,0.00,28,weatherlink.com 1.10,2013-09-26 23:28:00,
2013-09-26 18:43:00,80.9,62.0,29.79,East,101,1.0,9.0,52,0.00,,,0.00,21,weatherlink.com 1.10,2013-09-26 23:43:00,
2013-09-26 18:58:00,80.1,62.0,29.79,ESE,102,2.0,10.0,54,0.00,,,0.00,11,weatherlink.com 1.10,2013-09-26 23:58:00,
2013-09-26 19:13:00,79.3,62.0,29.79,SE,133,2.0,8.0,55,0.00,,,0.00,0,weatherlink.com 1.10,2013-09-27 00:13:00,
2013-09-26 19:28:00,78.6,62.0,29.79,SE,125,4.0,7.0,56,0.00,,,0.00,0,weatherlink.com 1.10,2013-09-27 00:28:00,
2013-09-26 19:43:00,78.0,61.0,29.80,ESE,122,5.0,13.0,57,0.00,,,0.00,0,weatherlink.com 1.10,2013-09-27 00:43:00,
2013-09-26 19:58:00,77.4,61.0,29.80,ESE,121,3.0,9.0,58,0.00,,,0.00,0,weatherlink.com 1.10,2013-09-27 00:58:00,
2013-09-26 20:13:00,77.0,61.0,29.80,East,98,10.0,11.0,59,0.00,,,0.00,0,weatherlink.com 1.10,2013-09-27 01:13:00,
2013-09-26 20:28:00,76.7,61.0,29.80,East,80,5.0,11.0,59,0.00,,,0.00,0,weatherlink.com 1.10,2013-09-27 01:28:00,
2013-09-26 20:43:00,76.4,61.0,29.81,East,100,3.0,14.0,59,0.00,,,0.00,0,weatherlink.com 1.10,2013-09-27 01:43:00,
2013-09-26 20:58:00,75.8,61.0,29.81,East,96,5.0,10.0,61,0.00,,,0.00,0,weatherlink.com 1.10,2013-09-27 01:58:00,
2013-09-26 21:13:00,75.4,61.0,29.82,East,80,5.0,9.0,62,0.00,,,0.00,0,weatherlink.com 1.10,2013-09-27 02:13:00,
2013-09-26 21:28:00,74.9,61.0,29.82,East,83,3.0,11.0,63,0.00,,,0.00,0,weatherlink.com 1.10,2013-09-27 02:28:00,
2013-09-26 21:43:00,74.5,61.0,29.83,ESE,115,3.0,10.0,64,0.00,,,0.00,0,weatherlink.com 1.10,2013-09-27 02:43:00,
2013-09-26 21:58:00,74.0,61.0,29.83,ENE,77,3.0,9.0,65,0.00,,,0.00,0,weatherlink.com 1.10,2013-09-27 02:58:00,
2013-09-26 22:13:00,73.7,62.0,29.83,ESE,111,2.0,8.0,66,0.00,,,0.00,0,weatherlink.com 1.10,2013-09-27 03:13:00,
2013-09-26 22:28:00,73.2,62.0,29.83,SE,125,3.0,8.0,67,0.00,,,0.00,0,weatherlink.com 1.10,2013-09-27 03:28:00,
2013-09-26 22:43:00,73.1,61.0,29.84,East,89,2.0,10.0,67,0.00,,,0.00,0,weatherlink.com 1.10,2013-09-27 03:43:00,
2013-09-26 22:58:00,72.8,62.0,29.83,ESE,102,2.0,8.0,68,0.00,,,0.00,0,weatherlink.com 1.10,2013-09-27 03:58:00,
2013-09-26 23:13:00,72.4,61.0,29.84,SE,131,4.0,9.0,68,0.00,,,0.00,0,weatherlink.com 1.10,2013-09-27 04:13:00,
2013-09-26 23:28:00,72.2,61.0,29.84,East,100,6.0,10.0,69,0.00,,,0.00,0,weatherlink.com 1.10,2013-09-27 04:28:00,
2013-09-26 23:43:00,72.1,61.0,29.83,ESE,119,4.0,9.0,69,0.00,,,0.00,0,weatherlink.com 1.10,2013-09-27 04:43:00,
2013-09-26 23:58:00,71.7,61.0,29.84,East,94,2.0,7.0,70,0.00,,,0.00,0,weatherlink.com 1.10,2013-09-27 04:58:00,